createdAt,value
2023-03-21T05:24:28.361Z,96383.28
2023-03-21T05:29:41.262Z,96379.00
2023-03-21T05:32:08.101Z,96376.44
2023-03-21T05:34:34.993Z,96371.22
2023-03-21T05:37:03.913Z,96371.19
2023-03-21T05:39:30.720Z,96379.66
2023-03-21T05:41:57.586Z,96371.50
2023-03-21T05:44:24.379Z,96374.53
2023-03-21T05:46:50.888Z,96375.56
2023-03-21T05:49:19.878Z,96375.13
2023-03-21T05:51:47.285Z,96371.97
2023-03-21T05:54:14.185Z,96372.16
2023-03-21T05:56:41.618Z,96378.06
2023-03-21T05:59:08.461Z,96374.19
2023-03-21T06:01:35.163Z,96379.63
2023-03-21T06:04:01.976Z,96385.59
2023-03-21T06:06:28.781Z,96390.03
2023-03-21T06:08:58.786Z,96391.53
2023-03-21T06:11:29.843Z,96389.81
2023-03-21T06:13:59.872Z,96395.50
2023-03-21T06:16:26.650Z,96406.19
2023-03-21T06:18:55.440Z,96392.31
2023-03-21T06:21:21.940Z,96397.03
2023-03-21T06:23:48.783Z,96394.69
2023-03-21T06:26:15.573Z,96394.78
2023-03-21T06:28:42.128Z,96398.59
2023-03-21T06:31:09.691Z,96396.06
2023-03-21T06:33:36.413Z,96405.72
2023-03-21T06:36:03.582Z,96398.19
2023-03-21T06:38:31.169Z,96400.63
2023-03-21T06:41:00.323Z,96406.47
2023-03-21T06:43:29.094Z,96407.94
2023-03-21T06:45:55.600Z,96405.84
2023-03-21T06:48:23.089Z,96404.19
2023-03-21T06:50:50.814Z,96405.28
2023-03-21T06:53:17.470Z,96411.16
2023-03-21T06:55:46.442Z,96408.88
2023-03-21T06:58:13.503Z,96411.13
2023-03-21T07:00:41.750Z,96424.06
2023-03-21T07:03:08.509Z,96421.31
2023-03-21T07:05:35.553Z,96426.59
2023-03-21T07:08:02.242Z,96422.13
2023-03-21T07:10:29.082Z,96420.47
2023-03-21T07:12:55.871Z,96419.53
2023-03-21T07:15:24.910Z,96427.94
2023-03-21T07:20:36.653Z,96421.84
2023-03-21T07:23:03.983Z,96419.81
2023-03-21T07:25:30.679Z,96423.09
2023-03-21T07:27:57.738Z,96417.09
2023-03-21T07:30:24.648Z,96425.47
2023-03-21T07:32:58.698Z,96426.63
2023-03-21T07:35:26.205Z,96421.22
2023-03-21T07:37:53.168Z,96426.06
2023-03-21T07:40:22.119Z,96424.03
2023-03-21T07:42:49.700Z,96434.75
2023-03-21T07:45:19.878Z,96439.28
2023-03-21T07:47:47.721Z,96446.94
2023-03-21T07:50:15.290Z,96446.53
2023-03-21T07:52:41.817Z,96440.78
2023-03-21T07:55:08.418Z,96436.69
2023-03-21T07:57:35.901Z,96439.66
2023-03-21T08:00:04.273Z,96434.34
2023-03-21T08:02:31.012Z,96443.56
2023-03-21T08:05:04.206Z,96442.69
2023-03-21T08:07:35.104Z,96445.53
2023-03-21T08:10:01.871Z,96440.44
2023-03-21T08:12:30.841Z,96446.09
2023-03-21T08:15:01.004Z,96441.94
2023-03-21T08:17:30.473Z,96429.78
2023-03-21T08:19:57.297Z,96435.50
2023-03-21T08:22:24.314Z,96436.66
2023-03-21T08:24:52.980Z,96435.91
2023-03-21T08:27:21.844Z,96433.06
2023-03-21T08:29:48.620Z,96442.22
2023-03-21T08:32:16.127Z,96437.63
2023-03-21T08:34:42.953Z,96441.44
2023-03-21T08:37:12.091Z,96439.63
2023-03-21T08:39:39.258Z,96446.75
2023-03-21T08:42:06.666Z,96434.13
2023-03-21T08:44:33.457Z,96441.97
2023-03-21T08:46:59.990Z,96427.84
2023-03-21T08:49:29.347Z,96428.94
2023-03-21T08:51:56.181Z,96424.69
2023-03-21T08:54:23.215Z,96429.78
2023-03-21T08:56:54.315Z,96423.66
2023-03-21T08:59:21.151Z,96421.41
2023-03-21T09:01:48.033Z,96427.53
2023-03-21T09:04:15.007Z,96428.28
2023-03-21T09:06:43.602Z,96427.50
2023-03-21T09:09:10.617Z,96430.03
2023-03-21T09:11:57.430Z,96414.69
2023-03-21T09:14:44.004Z,96412.28
2023-03-21T09:17:32.130Z,96419.38
2023-03-21T09:20:19.451Z,96412.84
2023-03-21T09:22:46.813Z,96414.13
2023-03-21T09:25:14.308Z,96411.09
2023-03-21T09:27:48.529Z,96421.97
2023-03-21T09:30:16.187Z,96411.81
2023-03-21T09:32:45.127Z,96417.03
2023-03-21T09:35:14.168Z,96415.25
2023-03-21T09:37:41.055Z,96418.63
2023-03-21T09:40:08.696Z,96413.78
2023-03-21T09:42:36.153Z,96414.97
2023-03-21T09:45:03.763Z,96418.16
2023-03-21T09:47:32.760Z,96422.69
2023-03-21T09:50:13.144Z,96420.28
2023-03-21T09:52:48.906Z,96412.94
2023-03-21T09:55:19.278Z,96408.91
2023-03-21T09:57:47.043Z,96405.63
2023-03-21T10:00:14.067Z,96408.41
2023-03-21T10:02:42.430Z,96396.81
2023-03-21T10:05:10.259Z,96401.75
2023-03-21T10:07:37.856Z,96402.91
2023-03-21T10:10:06.926Z,96393.06
2023-03-21T10:12:34.884Z,96386.81
2023-03-21T10:15:05.580Z,96386.69
2023-03-21T10:17:32.975Z,96380.44
2023-03-21T10:20:00.242Z,96379.75
2023-03-21T10:22:27.291Z,96372.75
2023-03-21T10:24:56.539Z,96371.38
2023-03-21T10:27:23.823Z,96365.22
2023-03-21T10:29:52.095Z,96368.03
2023-03-21T10:32:18.761Z,96372.84
2023-03-21T10:34:45.625Z,96370.88
2023-03-21T10:37:13.835Z,96366.00
2023-03-21T10:39:41.053Z,96366.19
2023-03-21T10:42:07.854Z,96363.31
2023-03-21T10:44:34.732Z,96360.78
2023-03-21T10:47:01.870Z,96359.19
2023-03-21T10:49:30.130Z,96362.88
2023-03-21T10:51:57.924Z,96359.47
2023-03-21T10:54:29.225Z,96362.88
2023-03-21T10:56:56.145Z,96360.69
2023-03-21T10:59:24.626Z,96357.53
2023-03-21T11:01:53.374Z,96358.34
2023-03-21T11:04:20.742Z,96360.28
2023-03-21T11:06:47.521Z,96352.72
2023-03-21T11:09:16.320Z,96357.59
2023-03-21T11:11:43.470Z,96353.16
2023-03-21T11:14:12.916Z,96358.22
2023-03-21T11:16:41.292Z,96360.28
2023-03-21T11:19:13.334Z,96352.41
2023-03-21T11:21:47.425Z,96354.78
2023-03-21T11:24:14.255Z,96348.88
2023-03-21T11:26:41.142Z,96347.72
2023-03-21T11:29:09.003Z,96342.97
2023-03-21T11:31:37.881Z,96340.94
2023-03-21T11:34:05.515Z,96337.81
2023-03-21T11:36:42.203Z,96342.06
2023-03-21T11:39:09.047Z,96332.69
2023-03-21T11:41:37.288Z,96325.81
2023-03-21T11:44:04.113Z,96319.13
2023-03-21T11:46:38.190Z,96313.66
2023-03-21T11:49:05.386Z,96314.22
2023-03-21T11:51:34.844Z,96311.66
2023-03-21T11:54:01.735Z,96299.47
2023-03-21T11:56:30.691Z,96289.59
2023-03-21T11:58:58.438Z,96289.47
2023-03-21T12:01:27.302Z,96282.75
2023-03-21T12:03:56.615Z,96284.66
2023-03-21T12:06:24.613Z,96279.38
2023-03-21T12:08:52.242Z,96281.13
2023-03-21T12:11:21.015Z,96277.25
2023-03-21T12:13:52.753Z,96275.41
2023-03-21T12:16:19.728Z,96270.66
2023-03-21T12:18:46.786Z,96265.47
2023-03-21T12:21:14.375Z,96265.31
2023-03-21T12:23:41.202Z,96255.44
2023-03-21T12:26:15.393Z,96246.13
2023-03-21T12:28:42.198Z,96247.06
2023-03-21T12:31:10.745Z,96237.31
2023-03-21T12:33:37.561Z,96233.66
2023-03-21T12:36:04.643Z,96238.34
2023-03-21T12:38:34.911Z,96235.22
2023-03-21T12:41:02.582Z,96227.53
2023-03-21T12:43:29.601Z,96226.88
2023-03-21T12:45:56.540Z,96230.91
2023-03-21T12:48:25.562Z,96227.19
2023-03-21T12:50:52.285Z,96226.22
2023-03-21T12:53:19.489Z,96226.53
2023-03-21T12:55:47.393Z,96221.63
2023-03-21T12:58:16.432Z,96219.97
2023-03-21T13:00:43.415Z,96220.78
2023-03-21T13:06:04.605Z,96215.25
2023-03-21T13:08:31.857Z,96205.34
2023-03-21T13:11:00.244Z,96206.84
2023-03-21T13:13:31.545Z,96204.03
2023-03-21T13:15:58.531Z,96197.53
2023-03-21T13:18:25.290Z,96203.81
2023-03-21T13:20:54.122Z,96203.56
2023-03-21T13:23:20.779Z,96198.78
2023-03-21T13:25:47.494Z,96199.97
2023-03-21T13:28:16.185Z,96196.75
2023-03-21T13:30:43.800Z,96191.63
2023-03-21T13:33:13.013Z,96190.88
2023-03-21T13:35:42.372Z,96183.19
2023-03-21T13:38:09.369Z,96183.31
2023-03-21T13:40:36.026Z,96181.84
2023-03-21T13:43:05.016Z,96175.44
2023-03-21T13:45:32.572Z,96183.75
2023-03-21T13:48:01.964Z,96183.25
2023-03-21T13:50:31.595Z,96173.75
2023-03-21T13:52:58.943Z,96171.47
2023-03-21T13:55:26.740Z,96161.69
2023-03-21T13:57:53.328Z,96167.31
2023-03-21T14:00:20.748Z,96158.28
2023-03-21T14:02:47.349Z,96159.22
2023-03-21T14:05:14.071Z,96149.97
2023-03-21T14:07:43.691Z,96145.53
2023-03-21T14:10:10.288Z,96144.41
2023-03-21T14:12:37.266Z,96149.13
2023-03-21T14:15:14.164Z,96138.34
2023-03-21T14:17:43.295Z,96135.78
2023-03-21T14:20:11.763Z,96132.75
2023-03-21T14:22:39.204Z,96127.28
2023-03-21T14:25:06.644Z,96130.56
2023-03-21T14:27:40.589Z,96134.53
2023-03-21T14:30:07.931Z,96138.22
2023-03-21T14:32:35.082Z,96138.13
2023-03-21T14:35:09.038Z,96134.19
2023-03-21T14:37:35.869Z,96128.66
2023-03-21T14:40:02.751Z,96122.50
2023-03-21T14:42:36.926Z,96121.47
2023-03-21T14:45:05.973Z,96128.81
2023-03-21T14:47:34.931Z,96121.34
2023-03-21T14:50:06.545Z,96124.63
2023-03-21T14:52:35.640Z,96119.19
2023-03-21T14:55:02.930Z,96118.41
2023-03-21T14:57:29.751Z,96120.03
2023-03-21T14:59:56.375Z,96122.97
2023-03-21T15:02:29.726Z,96119.16
2023-03-21T15:04:58.911Z,96123.75
2023-03-21T15:07:25.819Z,96117.13
2023-03-21T15:09:52.409Z,96130.00
2023-03-21T15:12:19.912Z,96123.50
2023-03-21T15:14:49.287Z,96121.88
2023-03-21T15:17:20.723Z,96123.47
2023-03-21T15:19:47.624Z,96123.31
2023-03-21T15:22:15.022Z,96121.47
2023-03-21T15:24:41.559Z,96122.22
2023-03-21T15:27:08.452Z,96114.94
2023-03-21T15:29:35.228Z,96110.78
2023-03-21T15:32:15.480Z,96116.56
2023-03-21T15:34:42.705Z,96118.59
2023-03-21T15:37:11.796Z,96117.28
2023-03-21T15:39:40.640Z,96123.16
2023-03-21T15:42:10.177Z,96113.56
2023-03-21T15:44:39.842Z,96120.28
2023-03-21T15:47:06.725Z,96121.13
2023-03-21T15:49:35.869Z,96119.22
2023-03-21T15:52:02.449Z,96114.34
2023-03-21T15:54:29.115Z,96112.06
2023-03-21T15:56:56.047Z,96118.47
2023-03-21T15:59:23.683Z,96114.56
2023-03-21T16:01:50.523Z,96119.66
2023-03-21T16:04:17.193Z,96125.72
2023-03-21T16:06:44.035Z,96115.47
2023-03-21T16:09:11.278Z,96126.16
2023-03-21T16:11:42.916Z,96127.63
2023-03-21T16:14:11.855Z,96114.56
2023-03-21T16:16:40.489Z,96117.03
2023-03-21T16:19:07.327Z,96115.59
2023-03-21T16:21:36.274Z,96128.56
2023-03-21T16:24:03.646Z,96120.50
2023-03-21T16:26:30.596Z,96123.94
2023-03-21T16:29:01.782Z,96120.41
2023-03-21T16:31:30.698Z,96118.16
2023-03-21T16:33:59.801Z,96122.91
2023-03-21T16:36:27.429Z,96127.22
2023-03-21T16:38:56.707Z,96119.03
2023-03-21T16:41:25.894Z,96121.97
2023-03-21T16:43:55.710Z,96124.16
2023-03-21T16:46:22.706Z,96125.31
2023-03-21T16:48:49.625Z,96131.53
2023-03-21T16:51:16.451Z,96129.69
2023-03-21T16:53:50.630Z,96123.53
2023-03-21T16:56:17.196Z,96131.97
2023-03-21T16:58:43.963Z,96129.38
2023-03-21T17:01:10.956Z,96129.59
2023-03-21T17:03:38.353Z,96128.13
2023-03-21T17:06:11.185Z,96127.66
2023-03-21T17:08:37.986Z,96135.69
2023-03-21T17:11:04.509Z,96136.13
2023-03-21T17:13:33.481Z,96141.44
2023-03-21T17:16:02.486Z,96145.97
2023-03-21T17:18:29.298Z,96142.44
2023-03-21T17:20:56.572Z,96143.56
2023-03-21T17:23:24.024Z,96141.44
2023-03-21T17:25:50.992Z,96141.09
2023-03-21T17:28:19.728Z,96145.06
2023-03-21T17:30:46.880Z,96144.72
2023-03-21T17:33:14.126Z,96138.13
2023-03-21T17:35:44.179Z,96150.34
2023-03-21T17:38:11.070Z,96146.31
2023-03-21T17:40:38.818Z,96151.91
2023-03-21T17:43:05.740Z,96144.16
2023-03-21T17:45:39.544Z,96142.69
2023-03-21T17:48:13.818Z,96141.84
2023-03-21T17:50:41.072Z,96144.06
2023-03-21T18:08:47.770Z,96154.66
2023-03-21T18:11:18.600Z,96157.00
2023-03-21T18:13:48.204Z,96155.69
2023-03-21T18:16:26.614Z,96166.28
2023-03-21T18:18:53.368Z,96165.47
2023-03-21T18:21:31.289Z,96161.09
2023-03-21T18:23:59.596Z,96165.63
2023-03-21T18:30:15.753Z,96167.94
2023-03-21T18:32:10.006Z,96161.22
2023-03-21T18:34:37.750Z,96156.81
2023-03-21T18:37:08.562Z,96165.28
2023-03-21T18:42:23.194Z,96164.06
2023-03-21T18:44:56.517Z,96161.03
2023-03-21T18:50:28.037Z,96165.72
2023-03-21T18:52:57.024Z,96157.00
2023-03-21T18:55:39.698Z,96165.41
2023-03-21T18:58:10.435Z,96169.22
2023-03-21T19:00:42.804Z,96167.78
2023-03-21T19:03:19.147Z,96171.06
2023-03-21T19:05:56.648Z,96172.91
2023-03-21T19:08:31.090Z,96182.25
2023-03-21T19:11:03.727Z,96188.69
2023-03-21T19:13:34.360Z,96175.44
2023-03-21T19:16:02.427Z,96189.03
2023-03-21T19:21:21.945Z,96191.47
2023-03-21T19:24:23.027Z,96192.53
2023-03-21T19:26:38.824Z,96189.63
2023-03-21T19:29:07.377Z,96184.63
2023-03-21T19:31:39.529Z,96190.56
2023-03-21T19:34:08.974Z,96191.81
2023-03-21T19:36:36.500Z,96190.34
2023-03-21T19:39:03.346Z,96187.53
2023-03-21T19:41:31.532Z,96184.06
2023-03-21T19:43:59.077Z,96189.06
2023-03-21T19:46:25.984Z,96186.00
2023-03-21T19:48:55.932Z,96187.44
2023-03-21T19:51:32.478Z,96193.94
2023-03-21T19:53:59.408Z,96186.84
2023-03-21T19:56:27.293Z,96179.91
2023-03-21T19:58:54.345Z,96185.69
2023-03-21T20:01:26.808Z,96176.28
2023-03-21T20:03:54.341Z,96181.63
2023-03-21T20:06:23.348Z,96184.88
2023-03-21T20:09:27.626Z,96195.69
2023-03-21T20:11:38.077Z,96183.88
2023-03-21T20:14:04.732Z,96182.00
2023-03-21T20:16:34.613Z,96172.56
2023-03-21T20:19:02.269Z,96174.31
2023-03-21T20:39:31.558Z,96189.97
2023-03-21T20:41:59.576Z,96194.81
2023-03-21T20:50:16.153Z,96192.78
2023-03-21T20:53:04.597Z,96194.03
2023-03-21T20:55:30.860Z,96208.22
2023-03-21T20:58:01.922Z,96204.38
2023-03-21T21:00:28.898Z,96206.88
2023-03-21T21:02:55.840Z,96199.16
2023-03-21T21:05:27.814Z,96201.66
2023-03-21T21:08:01.970Z,96199.78
2023-03-21T21:10:31.354Z,96197.19
2023-03-21T21:13:00.173Z,96198.41
2023-03-21T21:18:14.708Z,96190.06
2023-03-21T21:20:41.975Z,96190.84
2023-03-21T21:23:09.687Z,96199.78
2023-03-21T21:25:41.713Z,96191.13
2023-03-21T21:28:10.057Z,96190.69
2023-03-21T21:30:37.858Z,96186.91
2023-03-21T21:33:04.756Z,96193.25
2023-03-21T21:35:32.691Z,96186.84
2023-03-21T21:37:59.920Z,96185.81
2023-03-21T21:40:28.143Z,96175.94
2023-03-21T21:42:55.412Z,96181.47
2023-03-21T21:45:22.179Z,96176.81
2023-03-21T21:50:22.495Z,96181.09
2023-03-21T21:52:49.981Z,96189.47
2023-03-21T21:55:18.846Z,96192.53
2023-03-21T21:57:45.445Z,96180.78
2023-03-21T22:00:13.938Z,96181.78
2023-03-21T22:02:41.357Z,96175.97
2023-03-21T22:05:08.950Z,96182.75
2023-03-21T22:07:35.687Z,96181.63
2023-03-21T22:10:02.545Z,96183.25
2023-03-21T22:12:29.618Z,96179.50
2023-03-21T22:15:00.515Z,96181.69
2023-03-21T22:17:27.513Z,96177.41
2023-03-21T22:20:04.992Z,96185.13
2023-03-21T22:22:32.887Z,96177.09
2023-03-21T22:24:59.848Z,96181.16
2023-03-21T22:27:26.692Z,96175.81
2023-03-21T22:29:53.358Z,96172.97
2023-03-21T22:32:22.335Z,96174.72
2023-03-21T22:34:48.999Z,96179.22
2023-03-21T22:37:16.356Z,96175.66
2023-03-21T22:39:43.122Z,96175.97
2023-03-21T22:42:09.799Z,96173.06
2023-03-21T22:44:36.645Z,96172.53
2023-03-21T22:47:04.031Z,96166.41
2023-03-21T22:49:31.112Z,96171.16
2023-03-21T22:52:03.595Z,96172.09
2023-03-21T22:54:30.566Z,96175.88
2023-03-21T22:56:57.338Z,96176.59
2023-03-21T22:59:24.770Z,96175.31
2023-03-21T23:01:53.532Z,96171.94
2023-03-21T23:04:20.380Z,96176.00
2023-03-21T23:06:47.214Z,96170.16
2023-03-21T23:09:13.841Z,96174.22
2023-03-21T23:11:43.249Z,96181.31
2023-03-21T23:14:10.123Z,96181.63
2023-03-21T23:16:36.719Z,96184.28
2023-03-21T23:19:03.554Z,96181.13
2023-03-21T23:21:31.132Z,96177.47
2023-03-21T23:23:57.736Z,96184.72
2023-03-21T23:26:24.676Z,96183.38
2023-03-21T23:28:51.178Z,96181.34
2023-03-21T23:31:17.719Z,96182.00
2023-03-21T23:33:45.130Z,96175.63
2023-03-21T23:36:11.679Z,96171.69
2023-03-21T23:38:38.239Z,96178.88
2023-03-21T23:41:05.035Z,96176.31
2023-03-21T23:43:33.760Z,96175.63
2023-03-21T23:46:02.850Z,96180.19
2023-03-21T23:48:30.299Z,96180.81
2023-03-21T23:50:56.945Z,96177.13
2023-03-21T23:53:23.786Z,96177.44
2023-03-21T23:55:50.326Z,96180.09
2023-03-21T23:58:16.830Z,96180.47
